createdAt,value
2018-07-07T00:00:55.221Z,10.21
2018-07-07T00:01:55.202Z,10.18
2018-07-07T00:02:55.230Z,10.17
2018-07-07T00:03:55.182Z,10.16
2018-07-07T00:04:55.228Z,10.13
2018-07-07T00:05:55.292Z,10.08
2018-07-07T00:06:55.270Z,10.04
2018-07-07T00:07:55.203Z,10.02
2018-07-07T00:08:55.238Z,10.00
2018-07-07T00:09:55.204Z,9.98
2018-07-07T00:10:55.198Z,9.95
2018-07-07T00:11:55.273Z,9.93
2018-07-07T00:12:55.273Z,9.89
2018-07-07T00:13:55.273Z,9.86
2018-07-07T00:14:55.289Z,9.80
2018-07-07T00:15:55.206Z,9.82
2018-07-07T00:16:55.207Z,9.75
2018-07-07T00:17:55.204Z,9.71
2018-07-07T00:18:55.275Z,9.66
2018-07-07T00:19:55.317Z,9.62
2018-07-07T00:20:55.246Z,9.60
2018-07-07T00:21:55.298Z,9.57
2018-07-07T00:22:55.292Z,9.54
2018-07-07T00:23:55.253Z,9.53
2018-07-07T00:24:55.282Z,9.53
2018-07-07T00:25:55.316Z,9.51
2018-07-07T00:26:55.251Z,9.49
2018-07-07T00:27:55.221Z,9.47
2018-07-07T00:28:55.252Z,9.44
2018-07-07T00:29:55.187Z,9.43
2018-07-07T00:30:55.310Z,9.40
2018-07-07T00:31:55.313Z,9.36
2018-07-07T00:32:55.286Z,9.32
2018-07-07T00:33:55.282Z,9.30
2018-07-07T00:34:55.283Z,9.28
2018-07-07T00:35:55.246Z,9.27
2018-07-07T00:36:55.247Z,9.25
2018-07-07T00:37:55.204Z,9.23
2018-07-07T00:38:55.292Z,9.18
2018-07-07T00:39:55.193Z,9.16
2018-07-07T00:40:55.230Z,9.13
2018-07-07T00:41:55.257Z,9.11
2018-07-07T00:42:55.286Z,9.07
2018-07-07T00:43:55.210Z,9.04
2018-07-07T00:44:55.228Z,9.01
2018-07-07T00:45:55.196Z,8.96
2018-07-07T00:46:55.312Z,8.94
2018-07-07T00:47:55.324Z,8.89
2018-07-07T00:48:55.296Z,8.85
2018-07-07T00:49:55.337Z,8.83
2018-07-07T00:50:55.316Z,8.83
2018-07-07T00:51:55.329Z,8.80
2018-07-07T00:52:55.267Z,8.79
2018-07-07T00:53:55.328Z,8.74
2018-07-07T00:54:55.268Z,8.71
2018-07-07T00:55:55.261Z,8.68
2018-07-07T00:56:55.298Z,8.67
2018-07-07T00:57:55.360Z,8.72
2018-07-07T00:58:55.201Z,8.69
2018-07-07T00:59:55.171Z,8.68
2018-07-07T01:00:55.375Z,8.67
2018-07-07T01:01:55.296Z,8.60
2018-07-07T01:02:55.219Z,8.57
2018-07-07T01:03:55.223Z,8.53
2018-07-07T01:04:55.180Z,8.51
2018-07-07T01:05:55.300Z,8.47
2018-07-07T01:06:55.301Z,8.43
2018-07-07T01:07:55.210Z,8.42
2018-07-07T01:08:55.301Z,8.38
2018-07-07T01:09:55.311Z,8.45
2018-07-07T01:10:55.314Z,8.39
2018-07-07T01:11:55.255Z,8.38
2018-07-07T01:12:55.311Z,8.35
2018-07-07T01:13:55.242Z,8.28
2018-07-07T01:14:55.313Z,8.28
2018-07-07T01:15:55.244Z,8.31
2018-07-07T01:16:55.245Z,8.31
2018-07-07T01:17:55.271Z,8.31
2018-07-07T01:18:55.244Z,8.27
2018-07-07T01:19:55.308Z,8.22
2018-07-07T01:20:55.191Z,8.20
2018-07-07T01:21:55.265Z,8.27
2018-07-07T01:22:55.304Z,8.30
2018-07-07T01:23:55.313Z,8.34
2018-07-07T01:24:55.233Z,8.34
2018-07-07T01:25:55.244Z,8.34
2018-07-07T01:26:55.240Z,8.34
2018-07-07T01:27:55.314Z,8.28
2018-07-07T01:28:55.321Z,8.26
2018-07-07T01:29:55.357Z,8.26
2018-07-07T01:30:55.288Z,8.22
2018-07-07T01:31:55.318Z,8.17
2018-07-07T01:32:55.355Z,8.16
2018-07-07T01:33:55.244Z,8.16
2018-07-07T01:34:55.347Z,8.16
2018-07-07T01:35:55.290Z,8.11
2018-07-07T01:36:55.263Z,8.08
2018-07-07T01:37:55.328Z,8.06
2018-07-07T01:38:55.320Z,8.02
2018-07-07T01:39:55.320Z,7.99
2018-07-07T01:40:55.250Z,7.97
2018-07-07T01:41:55.250Z,7.97
2018-07-07T01:42:55.236Z,7.92
2018-07-07T01:43:55.290Z,7.87
2018-07-07T01:44:55.253Z,7.83
2018-07-07T01:45:55.358Z,7.82
2018-07-07T01:46:55.323Z,7.81
2018-07-07T01:47:55.209Z,7.79
2018-07-07T01:48:55.256Z,7.74
2018-07-07T01:49:55.241Z,7.72
2018-07-07T01:50:55.189Z,7.68
2018-07-07T01:51:55.194Z,7.74
2018-07-07T01:52:55.284Z,7.76
2018-07-07T01:53:55.255Z,7.72
2018-07-07T01:54:55.358Z,7.68
2018-07-07T01:55:55.244Z,7.60
2018-07-07T01:56:55.197Z,7.55
2018-07-07T01:57:55.196Z,7.51
2018-07-07T01:58:55.297Z,7.46
2018-07-07T01:59:55.374Z,7.45
2018-07-07T02:00:55.338Z,7.41
2018-07-07T02:01:55.313Z,7.41
2018-07-07T02:02:55.307Z,7.40
2018-07-07T02:03:55.345Z,7.38
2018-07-07T02:04:55.248Z,7.38
2018-07-07T02:05:55.345Z,7.44
2018-07-07T02:06:55.326Z,7.40
2018-07-07T02:07:55.270Z,7.40
2018-07-07T02:08:55.274Z,7.40
2018-07-07T02:09:55.273Z,7.41
2018-07-07T02:10:55.343Z,7.41
2018-07-07T02:11:55.279Z,7.40
2018-07-07T02:12:55.338Z,7.45
2018-07-07T02:13:55.345Z,7.37
2018-07-07T02:14:55.340Z,7.31
2018-07-07T02:15:55.344Z,7.26
2018-07-07T02:16:55.273Z,7.23
2018-07-07T02:17:55.269Z,7.27
2018-07-07T02:18:55.338Z,7.29
2018-07-07T02:19:55.352Z,7.33
2018-07-07T02:20:55.273Z,7.29
2018-07-07T02:21:55.360Z,7.30
2018-07-07T02:22:55.401Z,7.27
2018-07-07T02:23:55.386Z,7.23
2018-07-07T02:24:55.386Z,7.34
2018-07-07T02:25:55.379Z,7.37
2018-07-07T02:26:55.360Z,7.29
2018-07-07T02:27:55.287Z,7.23
2018-07-07T02:28:55.323Z,7.20
2018-07-07T02:29:55.323Z,7.19
2018-07-07T02:30:55.341Z,7.16
2018-07-07T02:31:55.394Z,7.16
2018-07-07T02:32:55.361Z,7.16
2018-07-07T02:33:55.266Z,7.13
2018-07-07T02:34:55.367Z,7.09
2018-07-07T02:35:55.393Z,7.08
2018-07-07T02:36:55.359Z,7.07
2018-07-07T02:37:55.371Z,7.04
2018-07-07T02:38:55.341Z,7.07
2018-07-07T02:39:55.388Z,7.07
2018-07-07T02:40:55.291Z,7.05
2018-07-07T02:41:55.281Z,7.05
2018-07-07T02:42:55.343Z,7.07
2018-07-07T02:43:55.365Z,7.04
2018-07-07T02:44:55.402Z,7.07
2018-07-07T02:45:55.340Z,7.05
2018-07-07T02:46:55.372Z,7.01
2018-07-07T02:47:55.380Z,7.00
2018-07-07T02:48:55.399Z,7.00
2018-07-07T02:49:55.343Z,6.97
2018-07-07T02:50:55.409Z,6.95
2018-07-07T02:51:55.275Z,6.93
2018-07-07T02:52:55.380Z,6.91
2018-07-07T02:53:55.405Z,6.91
2018-07-07T02:54:55.379Z,6.90
2018-07-07T02:55:55.361Z,6.89
2018-07-07T02:56:55.411Z,6.89
2018-07-07T02:57:55.396Z,6.87
2018-07-07T02:58:55.386Z,6.86
2018-07-07T02:59:55.285Z,6.84
2018-07-07T03:00:55.415Z,6.86
2018-07-07T03:01:55.354Z,6.82
2018-07-07T03:02:55.365Z,6.77
2018-07-07T03:03:55.414Z,6.77
2018-07-07T03:04:55.412Z,6.75
2018-07-07T03:05:55.308Z,6.79
2018-07-07T03:06:55.337Z,6.82
2018-07-07T03:07:55.428Z,6.82
2018-07-07T03:08:55.388Z,6.79
2018-07-07T03:09:55.326Z,6.79
2018-07-07T03:10:55.266Z,6.78
2018-07-07T03:11:55.386Z,6.74
2018-07-07T03:12:55.385Z,6.71
2018-07-07T03:13:55.349Z,6.67
2018-07-07T03:14:55.385Z,6.66
2018-07-07T03:15:55.387Z,6.61
2018-07-07T03:16:55.385Z,6.59
2018-07-07T03:17:55.313Z,6.55
2018-07-07T03:18:55.320Z,6.49
2018-07-07T03:19:55.389Z,6.51
2018-07-07T03:20:55.395Z,6.49
2018-07-07T03:21:55.335Z,6.48
2018-07-07T03:22:55.378Z,6.55
2018-07-07T03:23:55.341Z,6.52
2018-07-07T03:24:55.364Z,6.51
2018-07-07T03:25:55.438Z,6.51
2018-07-07T03:26:55.441Z,6.60
2018-07-07T03:27:55.381Z,6.68
2018-07-07T03:28:55.373Z,6.77
2018-07-07T03:29:55.422Z,6.82
2018-07-07T03:30:55.330Z,6.87
2018-07-07T03:31:55.330Z,6.87
2018-07-07T03:32:55.376Z,6.87
2018-07-07T03:33:55.331Z,6.86
2018-07-07T03:34:55.292Z,6.86
2018-07-07T03:35:55.363Z,6.84
2018-07-07T03:36:55.326Z,6.81
2018-07-07T03:37:55.296Z,6.81
2018-07-07T03:38:55.276Z,6.79
2018-07-07T03:39:55.355Z,6.75
2018-07-07T03:40:55.280Z,6.74
2018-07-07T03:41:55.278Z,6.74
2018-07-07T03:42:55.405Z,6.72
2018-07-07T03:43:55.278Z,6.71
2018-07-07T03:44:55.281Z,6.70
2018-07-07T03:45:55.397Z,6.70
2018-07-07T03:46:55.394Z,6.70
2018-07-07T03:47:55.297Z,6.66
2018-07-07T03:48:55.401Z,6.66
2018-07-07T03:49:55.413Z,6.61
2018-07-07T03:50:55.333Z,6.64
2018-07-07T03:51:55.447Z,6.67
2018-07-07T03:52:55.394Z,6.66
2018-07-07T03:53:55.349Z,6.61
2018-07-07T03:54:55.334Z,6.63
2018-07-07T03:55:55.312Z,6.64
2018-07-07T03:56:55.379Z,6.68
2018-07-07T03:57:55.443Z,6.68
2018-07-07T03:58:55.368Z,6.70
2018-07-07T03:59:55.477Z,6.71
2018-07-07T04:00:55.344Z,6.72
2018-07-07T04:01:55.344Z,6.74
2018-07-07T04:02:55.444Z,6.74
2018-07-07T04:03:55.447Z,6.75
2018-07-07T04:04:55.448Z,6.78
2018-07-07T04:05:55.398Z,6.82
2018-07-07T04:06:55.459Z,6.86
2018-07-07T04:07:55.401Z,6.86
2018-07-07T04:08:55.388Z,6.87
2018-07-07T04:09:55.452Z,6.93
2018-07-07T04:10:55.393Z,6.91
2018-07-07T04:11:55.387Z,6.91
2018-07-07T04:12:55.338Z,6.93
2018-07-07T04:13:55.387Z,6.93
2018-07-07T04:14:55.409Z,6.93
2018-07-07T04:15:55.404Z,6.95
2018-07-07T04:16:55.454Z,6.97
2018-07-07T04:17:55.511Z,7.01
2018-07-07T04:18:55.468Z,7.02
2018-07-07T04:19:55.360Z,7.04
2018-07-07T04:20:55.461Z,7.08
2018-07-07T04:21:55.462Z,7.09
2018-07-07T04:22:55.440Z,7.15
2018-07-07T04:23:55.463Z,7.13
2018-07-07T04:24:55.358Z,7.13
2018-07-07T04:25:55.475Z,7.15
2018-07-07T04:26:55.471Z,7.16
2018-07-07T04:27:55.436Z,7.19
2018-07-07T04:28:55.445Z,7.22
2018-07-07T04:29:55.416Z,7.23
2018-07-07T04:30:55.360Z,7.29
2018-07-07T04:31:55.480Z,7.30
2018-07-07T04:32:55.470Z,7.34
2018-07-07T04:33:55.445Z,7.40
2018-07-07T04:34:55.469Z,7.42
2018-07-07T04:35:55.446Z,7.46
2018-07-07T04:36:55.445Z,7.49
2018-07-07T04:37:55.414Z,7.51
2018-07-07T04:38:55.452Z,7.53
2018-07-07T04:39:55.442Z,7.59
2018-07-07T04:40:55.440Z,7.65
2018-07-07T04:41:55.437Z,7.72
2018-07-07T04:42:55.439Z,7.76
2018-07-07T04:43:55.401Z,7.82
2018-07-07T04:44:55.359Z,7.83
2018-07-07T04:45:55.456Z,7.85
2018-07-07T04:46:55.403Z,7.89
2018-07-07T04:47:55.339Z,7.92
2018-07-07T04:48:55.319Z,7.93
2018-07-07T04:49:55.448Z,7.97
2018-07-07T04:50:55.421Z,7.99
2018-07-07T04:51:55.455Z,8.04
2018-07-07T04:52:55.412Z,8.08
2018-07-07T04:53:55.460Z,8.12
2018-07-07T04:54:55.395Z,8.17
2018-07-07T04:55:55.418Z,8.23
2018-07-07T04:56:55.454Z,8.30
2018-07-07T04:57:55.419Z,8.35
2018-07-07T04:58:55.495Z,8.42
2018-07-07T04:59:55.487Z,8.53
2018-07-07T05:00:55.493Z,8.58
2018-07-07T05:01:55.491Z,8.61
2018-07-07T05:02:55.416Z,8.67
2018-07-07T05:03:55.427Z,8.78
2018-07-07T05:04:55.466Z,8.89
2018-07-07T05:05:55.426Z,9.00
2018-07-07T05:06:55.465Z,9.05
2018-07-07T05:07:55.375Z,9.13
2018-07-07T05:08:55.432Z,9.23
2018-07-07T05:09:55.436Z,9.31
2018-07-07T05:10:55.471Z,9.38
2018-07-07T05:11:55.440Z,9.46
2018-07-07T05:12:55.448Z,9.55
2018-07-07T05:13:55.376Z,9.62
2018-07-07T05:14:55.447Z,9.64
2018-07-07T05:15:55.439Z,9.71
2018-07-07T05:16:55.406Z,9.78
2018-07-07T05:17:55.499Z,9.82
2018-07-07T05:18:55.501Z,9.87
2018-07-07T05:19:55.473Z,9.93
2018-07-07T05:20:55.377Z,9.97
2018-07-07T05:21:55.433Z,10.01
2018-07-07T05:22:55.408Z,10.06
2018-07-07T05:23:55.372Z,10.11
2018-07-07T05:24:55.468Z,10.16
2018-07-07T05:25:55.463Z,10.21
2018-07-07T05:26:55.350Z,10.28
2018-07-07T05:27:55.474Z,10.36
2018-07-07T05:28:55.387Z,10.43
2018-07-07T05:29:55.413Z,10.50
2018-07-07T05:30:55.511Z,10.57
2018-07-07T05:31:55.565Z,10.63
2018-07-07T05:32:55.482Z,10.72
2018-07-07T05:33:55.416Z,10.77
2018-07-07T05:34:55.415Z,10.88
2018-07-07T05:35:55.439Z,10.94
2018-07-07T05:36:55.484Z,11.02
2018-07-07T05:37:55.377Z,11.05
2018-07-07T05:38:55.423Z,11.07
2018-07-07T05:39:55.490Z,11.11
2018-07-07T05:40:55.420Z,11.22
2018-07-07T05:41:55.421Z,11.31
2018-07-07T05:42:55.464Z,11.40
2018-07-07T05:43:55.425Z,11.49
2018-07-07T05:44:55.492Z,11.56
2018-07-07T05:45:55.494Z,11.62
2018-07-07T05:46:55.428Z,11.69
2018-07-07T05:47:55.507Z,11.76
2018-07-07T05:48:55.496Z,11.83
2018-07-07T05:49:55.439Z,11.95
2018-07-07T05:50:55.428Z,12.10
2018-07-07T05:51:55.427Z,12.26
2018-07-07T05:52:55.427Z,12.48
2018-07-07T05:53:55.433Z,12.71
2018-07-07T05:54:55.499Z,13.02
2018-07-07T05:55:55.509Z,13.25
2018-07-07T05:56:55.435Z,13.46
2018-07-07T05:57:55.503Z,13.70
2018-07-07T05:58:55.438Z,14.00
2018-07-07T05:59:55.438Z,14.22
2018-07-07T06:00:55.435Z,14.38
2018-07-07T06:01:55.438Z,14.55
2018-07-07T06:02:55.499Z,14.75
2018-07-07T06:03:55.467Z,14.94
2018-07-07T06:04:55.444Z,15.08
2018-07-07T06:05:55.507Z,15.21
2018-07-07T06:06:55.444Z,15.46
2018-07-07T06:07:55.527Z,15.72
2018-07-07T06:08:55.512Z,15.99
2018-07-07T06:09:55.444Z,16.13
2018-07-07T06:10:55.498Z,16.24
2018-07-07T06:11:55.499Z,16.36
2018-07-07T06:12:55.378Z,16.33
2018-07-07T06:13:55.429Z,16.55
2018-07-07T06:14:55.511Z,16.62
2018-07-07T06:15:55.417Z,16.55
2018-07-07T06:16:55.417Z,16.66
2018-07-07T06:17:55.419Z,16.63
2018-07-07T06:18:55.463Z,16.58
2018-07-07T06:19:55.510Z,16.74
2018-07-07T06:20:55.513Z,17.01
2018-07-07T06:21:55.516Z,17.16
2018-07-07T06:22:55.517Z,17.03
2018-07-07T06:23:55.448Z,17.08
2018-07-07T06:24:55.519Z,16.95
2018-07-07T06:25:55.519Z,17.14
2018-07-07T06:26:55.454Z,17.32
2018-07-07T06:27:55.520Z,17.39
2018-07-07T06:28:55.495Z,17.49
2018-07-07T06:29:55.459Z,17.62
2018-07-07T06:30:55.520Z,17.57
2018-07-07T06:31:55.510Z,17.72
2018-07-07T06:32:55.457Z,17.76
2018-07-07T06:33:55.506Z,17.92
2018-07-07T06:34:55.413Z,18.02
2018-07-07T06:35:55.515Z,18.03
2018-07-07T06:36:55.516Z,18.07
2018-07-07T06:37:55.448Z,18.12
2018-07-07T06:38:55.412Z,18.12
2018-07-07T06:39:55.435Z,18.18
2018-07-07T06:40:55.553Z,17.95
2018-07-07T06:41:55.495Z,17.68
2018-07-07T06:42:55.504Z,17.75
2018-07-07T06:43:55.510Z,17.88
2018-07-07T06:44:55.494Z,17.62
2018-07-07T06:45:55.531Z,17.51
2018-07-07T06:46:55.438Z,17.37
2018-07-07T06:47:55.451Z,17.51
2018-07-07T06:48:55.435Z,17.49
2018-07-07T06:49:55.473Z,17.43
2018-07-07T06:50:55.526Z,17.50
2018-07-07T06:51:55.521Z,17.49
2018-07-07T06:52:55.499Z,17.57
2018-07-07T06:53:55.569Z,17.50
2018-07-07T06:54:55.401Z,17.37
2018-07-07T06:55:55.567Z,17.18
2018-07-07T06:56:55.473Z,17.20
2018-07-07T06:57:55.524Z,17.25
2018-07-07T06:58:55.473Z,17.42
2018-07-07T06:59:55.433Z,17.51
2018-07-07T07:00:55.449Z,17.58
2018-07-07T07:01:55.479Z,17.62
2018-07-07T07:02:55.433Z,17.55
2018-07-07T07:03:55.500Z,17.77
2018-07-07T07:04:55.499Z,17.88
2018-07-07T07:05:55.453Z,18.10
2018-07-07T07:06:55.544Z,18.20
2018-07-07T07:07:55.478Z,18.34
2018-07-07T07:08:55.453Z,18.34
2018-07-07T07:09:55.536Z,18.20
2018-07-07T07:10:55.549Z,17.96
2018-07-07T07:11:55.535Z,17.72
2018-07-07T07:12:55.568Z,17.92
2018-07-07T07:13:55.510Z,17.94
2018-07-07T07:14:55.461Z,18.05
2018-07-07T07:15:55.548Z,18.07
2018-07-07T07:16:55.584Z,18.29
2018-07-07T07:17:55.549Z,18.58
2018-07-07T07:18:55.571Z,18.94
2018-07-07T07:19:55.611Z,19.05
2018-07-07T07:20:55.582Z,19.05
2018-07-07T07:21:55.582Z,18.83
2018-07-07T07:22:55.567Z,18.50
2018-07-07T07:23:55.562Z,18.43
2018-07-07T07:24:55.574Z,18.47
2018-07-07T07:25:55.624Z,18.35
2018-07-07T07:26:55.554Z,18.40
2018-07-07T07:27:55.463Z,18.58
2018-07-07T07:28:55.539Z,18.50
2018-07-07T07:29:55.566Z,18.55
2018-07-07T07:30:55.537Z,18.66
2018-07-07T07:31:55.470Z,18.88
2018-07-07T07:32:55.526Z,18.81
2018-07-07T07:33:55.590Z,18.77
2018-07-07T07:34:55.565Z,18.81
2018-07-07T07:35:55.524Z,18.80
2018-07-07T07:36:55.477Z,18.84
2018-07-07T07:37:55.603Z,18.94
2018-07-07T07:38:55.478Z,18.98
2018-07-07T07:39:55.544Z,19.10
2018-07-07T07:40:55.570Z,19.16
2018-07-07T07:41:55.526Z,19.15
2018-07-07T07:42:55.564Z,19.16
2018-07-07T07:43:55.534Z,19.46
2018-07-07T07:44:55.494Z,19.64
2018-07-07T07:45:55.510Z,19.61
2018-07-07T07:46:55.545Z,19.65
2018-07-07T07:47:55.543Z,19.68
2018-07-07T07:48:55.471Z,19.84
2018-07-07T07:49:55.543Z,19.85
2018-07-07T07:50:55.607Z,19.95
2018-07-07T07:51:55.546Z,19.72
2018-07-07T07:52:55.616Z,19.57
2018-07-07T07:53:55.475Z,19.72
2018-07-07T07:54:55.534Z,20.13
2018-07-07T07:55:55.516Z,20.45
2018-07-07T07:56:55.536Z,20.82
2018-07-07T07:57:55.547Z,21.13
2018-07-07T07:58:55.558Z,21.27
2018-07-07T07:59:55.603Z,21.49
2018-07-07T08:00:55.594Z,21.17
2018-07-07T08:01:55.492Z,20.61
2018-07-07T08:02:55.608Z,20.82
2018-07-07T08:03:55.483Z,21.08
2018-07-07T08:04:55.692Z,21.29
2018-07-07T08:05:55.489Z,21.32
2018-07-07T08:06:55.603Z,21.45
2018-07-07T08:07:55.511Z,21.75
2018-07-07T08:08:55.556Z,21.84
2018-07-07T08:09:55.539Z,21.51
2018-07-07T08:10:55.587Z,21.36
2018-07-07T08:11:55.523Z,21.51
2018-07-07T08:12:55.591Z,21.54
2018-07-07T08:13:55.534Z,21.50
2018-07-07T08:14:55.527Z,21.67
2018-07-07T08:15:55.484Z,21.42
2018-07-07T08:16:55.526Z,21.31
2018-07-07T08:17:55.590Z,21.13
2018-07-07T08:18:55.529Z,20.98
2018-07-07T08:19:55.528Z,20.86
2018-07-07T08:20:55.626Z,20.70
2018-07-07T08:21:55.582Z,20.31
2018-07-07T08:22:55.626Z,20.01
2018-07-07T08:23:55.601Z,20.09
2018-07-07T08:24:55.507Z,20.10
2018-07-07T08:25:55.557Z,20.05
2018-07-07T08:26:55.553Z,20.02
2018-07-07T08:27:55.508Z,19.90
2018-07-07T08:28:55.641Z,19.87
2018-07-07T08:29:55.628Z,19.79
2018-07-07T08:30:55.621Z,19.87
2018-07-07T08:31:55.589Z,19.73
2018-07-07T08:32:55.493Z,19.92
2018-07-07T08:33:55.603Z,20.01
2018-07-07T08:34:55.553Z,19.84
2018-07-07T08:35:55.586Z,19.84
2018-07-07T08:36:55.553Z,19.87
2018-07-07T08:37:55.533Z,20.01
2018-07-07T08:38:55.556Z,20.23
2018-07-07T08:39:55.593Z,20.27
2018-07-07T08:40:55.597Z,20.32
2018-07-07T08:41:55.583Z,20.35
2018-07-07T08:42:55.602Z,20.41
2018-07-07T08:43:55.520Z,20.50
2018-07-07T08:44:55.548Z,20.43
2018-07-07T08:45:55.546Z,20.28
2018-07-07T08:46:55.518Z,20.32
2018-07-07T08:47:55.567Z,20.12
2018-07-07T08:48:55.604Z,20.10
2018-07-07T08:49:55.607Z,20.12
2018-07-07T08:50:55.479Z,20.13
2018-07-07T08:51:55.550Z,20.35
2018-07-07T08:52:55.616Z,20.32
2018-07-07T08:53:55.618Z,20.35
2018-07-07T08:54:55.553Z,20.31
2018-07-07T08:55:55.553Z,20.31
2018-07-07T08:56:55.618Z,20.20
2018-07-07T08:57:55.558Z,20.27
2018-07-07T08:58:55.621Z,20.36
2018-07-07T08:59:55.617Z,20.38
2018-07-07T09:00:55.556Z,20.54
2018-07-07T09:01:55.627Z,20.43
2018-07-07T09:02:55.623Z,20.60
2018-07-07T09:03:55.622Z,20.84
2018-07-07T09:04:55.565Z,20.84
2018-07-07T09:05:55.648Z,20.91
2018-07-07T09:06:55.549Z,20.91
2018-07-07T09:07:55.649Z,20.73
2018-07-07T09:08:55.558Z,20.76
2018-07-07T09:09:55.562Z,20.80
2018-07-07T09:10:55.631Z,21.01
2018-07-07T09:11:55.566Z,21.25
2018-07-07T09:12:55.628Z,21.47
2018-07-07T09:13:55.632Z,21.47
2018-07-07T09:14:55.630Z,21.35
2018-07-07T09:15:55.570Z,21.40
2018-07-07T09:16:55.634Z,21.25
2018-07-07T09:17:55.569Z,21.25
2018-07-07T09:18:55.662Z,21.25
2018-07-07T09:19:55.530Z,21.50
2018-07-07T09:20:55.641Z,21.47
2018-07-07T09:21:55.619Z,21.67
2018-07-07T09:22:55.671Z,21.71
2018-07-07T09:23:55.577Z,21.72
2018-07-07T09:24:55.637Z,21.62
2018-07-07T09:25:55.601Z,21.53
2018-07-07T09:26:55.617Z,21.76
2018-07-07T09:27:55.561Z,21.83
2018-07-07T09:28:55.660Z,21.75
2018-07-07T09:29:55.670Z,21.49
2018-07-07T09:30:55.786Z,21.51
2018-07-07T09:31:55.709Z,21.68
2018-07-07T09:32:55.649Z,21.68
2018-07-07T09:33:55.641Z,21.40
2018-07-07T09:34:55.647Z,21.53
2018-07-07T09:35:55.578Z,21.65
2018-07-07T09:36:55.662Z,21.67
2018-07-07T09:37:55.579Z,21.54
2018-07-07T09:38:55.647Z,21.58
2018-07-07T09:39:55.586Z,21.50
2018-07-07T09:40:55.647Z,21.47
2018-07-07T09:41:55.614Z,21.50
2018-07-07T09:42:55.571Z,21.72
2018-07-07T09:43:55.625Z,21.64
2018-07-07T09:44:55.619Z,21.47
2018-07-07T09:45:55.613Z,21.49
2018-07-07T09:46:55.625Z,21.49
2018-07-07T09:47:55.611Z,21.57
2018-07-07T09:48:55.680Z,21.79
2018-07-07T09:49:55.636Z,21.84
2018-07-07T09:50:55.624Z,21.90
2018-07-07T09:51:55.556Z,21.73
2018-07-07T09:52:55.620Z,21.62
2018-07-07T09:53:55.558Z,21.64
2018-07-07T09:54:55.623Z,21.80
2018-07-07T09:55:55.654Z,21.84
2018-07-07T09:56:55.696Z,22.01
2018-07-07T09:57:55.569Z,22.01
2018-07-07T09:58:55.640Z,21.96
2018-07-07T09:59:55.564Z,22.06
2018-07-07T10:00:55.646Z,22.28
2018-07-07T10:01:55.695Z,22.41
2018-07-07T10:02:55.698Z,22.48
2018-07-07T10:03:55.565Z,22.54
2018-07-07T10:04:55.633Z,22.68
2018-07-07T10:05:55.692Z,22.88
2018-07-07T10:06:55.637Z,22.82
2018-07-07T10:07:55.588Z,22.71
2018-07-07T10:08:55.695Z,22.70
2018-07-07T10:09:55.718Z,22.68
2018-07-07T10:10:55.708Z,22.84
2018-07-07T10:11:55.615Z,23.05
2018-07-07T10:12:55.599Z,23.19
2018-07-07T10:13:55.608Z,22.93
2018-07-07T10:14:55.674Z,22.94
2018-07-07T10:15:55.604Z,22.95
2018-07-07T10:16:55.678Z,23.05
2018-07-07T10:17:55.767Z,22.86
2018-07-07T10:18:55.613Z,22.63
2018-07-07T10:19:55.613Z,22.50
2018-07-07T10:20:55.691Z,22.50
2018-07-07T10:21:55.675Z,22.53
2018-07-07T10:22:55.699Z,22.53
2018-07-07T10:23:55.708Z,22.49
2018-07-07T10:24:55.616Z,22.63
2018-07-07T10:25:55.645Z,22.46
2018-07-07T10:26:55.697Z,22.57
2018-07-07T10:27:55.654Z,22.56
2018-07-07T10:28:55.719Z,22.50
2018-07-07T10:29:55.643Z,22.52
2018-07-07T10:30:55.582Z,22.43
2018-07-07T10:31:55.554Z,22.42
2018-07-07T10:32:55.577Z,22.49
2018-07-07T10:33:55.634Z,22.63
2018-07-07T10:34:55.647Z,22.63
2018-07-07T10:35:55.546Z,22.82
2018-07-07T10:36:55.668Z,23.01
2018-07-07T10:37:55.561Z,23.17
2018-07-07T10:38:55.575Z,23.30
2018-07-07T10:39:55.579Z,23.09
2018-07-07T10:40:55.571Z,22.82
2018-07-07T10:41:55.620Z,23.06
2018-07-07T10:42:55.689Z,23.08
2018-07-07T10:43:55.625Z,23.30
2018-07-07T10:44:55.624Z,23.49
2018-07-07T10:45:56.045Z,23.31
2018-07-07T10:46:55.727Z,23.09
2018-07-07T10:47:55.617Z,23.11
2018-07-07T10:48:55.763Z,23.01
2018-07-07T10:49:55.631Z,23.20
2018-07-07T10:50:55.694Z,23.38
2018-07-07T10:51:55.690Z,23.45
2018-07-07T10:52:55.751Z,23.78
2018-07-07T10:53:55.604Z,23.90
2018-07-07T10:54:55.660Z,23.96
2018-07-07T10:55:55.732Z,23.86
2018-07-07T10:56:55.677Z,24.05
2018-07-07T10:57:55.656Z,23.86
2018-07-07T10:58:55.677Z,23.82
2018-07-07T10:59:55.682Z,23.50
2018-07-07T11:00:55.726Z,23.35
2018-07-07T11:01:55.729Z,23.37
2018-07-07T11:02:55.747Z,23.23
2018-07-07T11:03:55.705Z,23.30
2018-07-07T11:04:55.739Z,23.58
2018-07-07T11:05:55.730Z,23.60
2018-07-07T11:06:55.669Z,23.65
2018-07-07T11:07:55.747Z,23.69
2018-07-07T11:08:55.675Z,23.49
2018-07-07T11:09:55.747Z,23.58
2018-07-07T11:10:55.744Z,23.51
2018-07-07T11:11:55.780Z,23.34
2018-07-07T11:12:55.736Z,23.26
2018-07-07T11:13:55.737Z,23.33
2018-07-07T11:14:55.665Z,23.27
2018-07-07T11:15:55.665Z,23.26
2018-07-07T11:16:55.786Z,23.28
2018-07-07T11:17:55.615Z,23.50
2018-07-07T11:18:55.693Z,23.42
2018-07-07T11:19:55.763Z,23.30
2018-07-07T11:20:55.720Z,23.28
2018-07-07T11:21:55.749Z,23.44
2018-07-07T11:22:55.807Z,23.35
2018-07-07T11:23:55.601Z,23.17
2018-07-07T11:24:55.651Z,23.12
2018-07-07T11:25:55.719Z,23.27
2018-07-07T11:26:55.720Z,23.19
2018-07-07T11:27:55.655Z,23.26
2018-07-07T11:28:55.721Z,23.39
2018-07-07T11:29:55.656Z,23.57
2018-07-07T11:30:55.725Z,23.39
2018-07-07T11:31:55.656Z,23.42
2018-07-07T11:32:55.657Z,23.47
2018-07-07T11:33:55.667Z,23.61
2018-07-07T11:34:55.729Z,23.56
2018-07-07T11:35:55.725Z,23.39
2018-07-07T11:36:55.819Z,23.54
2018-07-07T11:37:55.664Z,23.71
2018-07-07T11:38:55.663Z,23.94
2018-07-07T11:39:55.755Z,24.08
2018-07-07T11:40:55.728Z,24.25
2018-07-07T11:41:55.732Z,24.49
2018-07-07T11:42:55.711Z,24.47
2018-07-07T11:43:55.673Z,24.40
2018-07-07T11:44:55.656Z,24.22
2018-07-07T11:45:55.640Z,23.69
2018-07-07T11:46:55.703Z,23.58
2018-07-07T11:47:55.701Z,23.41
2018-07-07T11:48:55.732Z,23.47
2018-07-07T11:49:55.701Z,23.33
2018-07-07T11:50:55.692Z,23.44
2018-07-07T11:51:55.701Z,23.42
2018-07-07T11:52:55.705Z,23.71
2018-07-07T11:53:55.744Z,24.00
2018-07-07T11:54:55.636Z,24.12
2018-07-07T11:55:55.777Z,24.34
2018-07-07T11:56:55.743Z,24.56
2018-07-07T11:57:55.679Z,24.29
2018-07-07T11:58:55.667Z,24.18
2018-07-07T11:59:55.719Z,24.00
2018-07-07T12:00:55.776Z,24.04
2018-07-07T12:01:55.764Z,24.19
2018-07-07T12:02:55.776Z,24.12
2018-07-07T12:03:55.752Z,24.16
2018-07-07T12:04:55.767Z,23.98
2018-07-07T12:05:55.748Z,24.11
2018-07-07T12:06:55.754Z,24.26
2018-07-07T12:08:00.832Z,24.19
2018-07-07T12:08:55.698Z,24.33
2018-07-07T12:09:55.683Z,24.48
2018-07-07T12:10:55.750Z,24.57
2018-07-07T12:11:55.750Z,24.67
2018-07-07T12:12:55.716Z,24.63
2018-07-07T12:13:55.657Z,24.53
2018-07-07T12:14:55.727Z,24.61
2018-07-07T12:15:55.656Z,24.67
2018-07-07T12:16:55.662Z,24.78
2018-07-07T12:17:55.784Z,24.66
2018-07-07T12:18:55.716Z,24.81
2018-07-07T12:19:55.721Z,24.95
2018-07-07T12:20:55.694Z,24.71
2018-07-07T12:21:55.727Z,24.81
2018-07-07T12:22:55.790Z,24.89
2018-07-07T12:23:55.792Z,25.15
2018-07-07T12:24:55.736Z,25.09
2018-07-07T12:25:55.796Z,24.98
2018-07-07T12:26:55.703Z,24.97
2018-07-07T12:27:55.738Z,24.72
2018-07-07T12:28:55.722Z,24.77
2018-07-07T12:29:55.768Z,24.59
2018-07-07T12:30:55.784Z,24.75
2018-07-07T12:31:55.737Z,24.86
2018-07-07T12:32:55.739Z,25.09
2018-07-07T12:33:55.764Z,25.23
2018-07-07T12:34:55.902Z,24.95
2018-07-07T12:35:55.665Z,25.00
2018-07-07T12:36:55.766Z,25.00
2018-07-07T12:37:55.668Z,25.22
2018-07-07T12:38:55.678Z,25.34
2018-07-07T12:39:55.781Z,25.31
2018-07-07T12:40:55.741Z,25.16
2018-07-07T12:41:55.708Z,25.01
2018-07-07T12:42:55.705Z,25.16
2018-07-07T12:43:55.776Z,25.51
2018-07-07T12:44:55.706Z,25.81
2018-07-07T12:45:55.803Z,25.75
2018-07-07T12:46:55.710Z,25.46
2018-07-07T12:47:55.702Z,25.35
2018-07-07T12:48:55.777Z,25.42
2018-07-07T12:49:55.778Z,25.48
2018-07-07T12:50:55.708Z,25.30
2018-07-07T12:51:55.865Z,25.44
2018-07-07T12:52:55.798Z,25.31
2018-07-07T12:53:55.810Z,25.33
2018-07-07T12:54:55.703Z,25.37
2018-07-07T12:55:55.741Z,25.59
2018-07-07T12:56:55.809Z,25.84
2018-07-07T12:57:55.703Z,25.93
2018-07-07T12:58:55.809Z,26.07
2018-07-07T12:59:55.686Z,26.10
2018-07-07T13:00:55.722Z,25.96
2018-07-07T13:01:55.685Z,25.68
2018-07-07T13:02:55.745Z,25.63